createdAt,value
2023-08-14T00:03:51.880Z,964.12
2023-08-14T00:08:53.240Z,964.14
2023-08-14T00:13:54.876Z,964.04
2023-08-14T00:18:56.071Z,963.95
2023-08-14T00:23:57.782Z,963.9
2023-08-14T00:28:59.133Z,963.92
2023-08-14T00:34:00.834Z,963.92
2023-08-14T00:39:02.416Z,963.84
2023-08-14T00:44:04.439Z,963.81
2023-08-14T00:49:06.312Z,963.73
2023-08-14T00:54:07.900Z,963.66
2023-08-14T00:59:09.944Z,963.66
2023-08-14T01:04:11.947Z,963.61
2023-08-14T01:09:13.352Z,963.53
2023-08-14T01:14:15.021Z,963.5
2023-08-14T01:19:16.910Z,963.43
2023-08-14T01:24:18.820Z,963.37
2023-08-14T01:29:20.119Z,963.41
2023-08-14T01:34:21.392Z,963.39
2023-08-14T01:39:22.912Z,963.29
2023-08-14T01:44:24.273Z,963.29
2023-08-14T01:49:25.671Z,963.24
2023-08-14T01:54:27.636Z,963.34
2023-08-14T01:59:28.923Z,963.35
2023-08-14T02:04:31.020Z,963.33
2023-08-14T02:09:32.909Z,963.42
2023-08-14T02:14:34.884Z,963.39
2023-08-14T02:19:36.598Z,963.51
2023-08-14T02:24:37.946Z,963.54
2023-08-14T02:29:39.292Z,963.59
2023-08-14T02:34:40.942Z,963.54
2023-08-14T02:39:43.079Z,963.46
2023-08-14T02:44:44.212Z,963.5
2023-08-14T02:49:46.207Z,963.53
2023-08-14T02:54:47.408Z,963.53
2023-08-14T02:59:49.432Z,963.56
2023-08-14T03:04:51.481Z,963.64
2023-08-14T03:09:52.883Z,963.61
2023-08-14T03:14:54.572Z,963.58
2023-08-14T03:19:56.169Z,963.54
2023-08-14T03:24:57.950Z,963.32
2023-08-14T03:29:59.812Z,963.11
2023-08-14T03:35:08.130Z,963.09
2023-08-14T03:40:09.791Z,963.08
2023-08-14T03:45:11.827Z,963.02
2023-08-14T03:50:13.887Z,962.98
2023-08-14T03:55:15.300Z,963.04
2023-08-14T04:00:16.544Z,963
2023-08-14T04:05:18.676Z,963.01
2023-08-14T04:10:19.889Z,963.1
2023-08-14T04:15:21.886Z,963.12
2023-08-14T04:20:23.279Z,963.09
2023-08-14T04:25:24.624Z,963.14
2023-08-14T04:50:34.297Z,963.35
2023-08-14T05:15:43.237Z,963.87
2023-08-14T05:30:47.532Z,963.94
2023-08-14T05:35:49.652Z,964
2023-08-14T06:00:57.660Z,963.78
2023-08-14T06:56:16.984Z,963.63
2023-08-14T07:21:25.588Z,963.65
2023-08-14T07:26:27.303Z,963.67
2023-08-14T07:31:29.305Z,963.68
2023-08-14T07:36:31.118Z,963.67
2023-08-14T07:41:32.761Z,963.68
2023-08-14T07:46:34.436Z,963.68
2023-08-14T07:51:35.956Z,963.66
2023-08-14T07:56:37.683Z,963.68
2023-08-14T08:01:38.871Z,963.68
2023-08-14T08:06:44.430Z,963.68
2023-08-14T08:11:42.178Z,963.66
2023-08-14T08:16:44.072Z,963.7
2023-08-14T08:21:46.184Z,963.61
2023-08-14T08:26:47.846Z,963.62
2023-08-14T08:31:49.683Z,963.63
2023-08-14T08:36:50.921Z,963.59
2023-08-14T08:41:52.994Z,963.47
2023-08-14T08:46:54.689Z,963.48
2023-08-14T08:51:55.913Z,963.49
2023-08-14T08:56:57.363Z,963.55
2023-08-14T09:01:59.288Z,963.6
2023-08-14T09:07:00.760Z,963.62
2023-08-14T09:12:02.361Z,963.53
2023-08-14T09:17:04.147Z,963.48
2023-08-14T09:22:05.925Z,963.47
2023-08-14T09:27:08.006Z,963.34
2023-08-14T09:32:09.654Z,963.37
2023-08-14T09:37:11.442Z,963.38
2023-08-14T09:42:13.574Z,963.35
2023-08-14T09:47:15.915Z,963.28
2023-08-14T09:52:17.079Z,963.24
2023-08-14T09:57:18.251Z,963.29
2023-08-14T10:02:21.868Z,963.3
2023-08-14T10:07:22.169Z,963.19
2023-08-14T10:12:23.460Z,963.1
2023-08-14T10:17:24.862Z,963.11
2023-08-14T10:22:26.691Z,963.12
2023-08-14T10:27:27.896Z,963.11
2023-08-14T10:32:29.084Z,963.02
2023-08-14T10:37:30.532Z,962.97
2023-08-14T10:42:31.975Z,962.98
2023-08-14T10:47:33.627Z,962.88
2023-08-14T10:52:37.429Z,962.84
2023-08-14T10:57:37.497Z,962.81
2023-08-14T11:02:38.733Z,962.78
2023-08-14T11:07:40.420Z,962.74
2023-08-14T11:12:42.320Z,962.81
2023-08-14T11:17:43.891Z,962.78
2023-08-14T11:22:45.681Z,962.74
2023-08-14T11:27:47.322Z,962.7
2023-08-14T11:32:49.163Z,962.69
2023-08-14T11:37:50.767Z,962.72
2023-08-14T11:42:52.528Z,962.72
2023-08-14T11:47:54.084Z,962.65
2023-08-14T11:52:55.877Z,962.65
2023-08-14T11:57:57.369Z,962.66
2023-08-14T12:02:58.547Z,962.69
2023-08-14T12:08:00.592Z,962.69
2023-08-14T12:13:02.524Z,962.64
2023-08-14T12:18:04.168Z,962.52
2023-08-14T12:23:05.615Z,962.47
2023-08-14T12:28:07.637Z,962.4
2023-08-14T12:33:09.835Z,962.35
2023-08-14T12:38:11.577Z,962.25
2023-08-14T12:43:13.319Z,962.3
2023-08-14T12:48:15.432Z,962.25
2023-08-14T12:53:17.288Z,962.27
2023-08-14T12:58:19.166Z,962.23
2023-08-14T13:03:27.614Z,962.26
2023-08-14T13:08:22.957Z,962.26
2023-08-14T13:13:24.984Z,962.23
2023-08-14T13:18:27.058Z,962.17
2023-08-14T13:23:28.819Z,962.25
2023-08-14T13:28:30.938Z,962.17
2023-08-14T13:33:32.813Z,962.18
2023-08-14T13:38:34.949Z,962.18
2023-08-14T13:43:36.883Z,962.18
2023-08-14T13:48:38.341Z,962.22
2023-08-14T13:53:40.309Z,962.18
2023-08-14T13:58:41.854Z,962.18
2023-08-14T14:03:43.908Z,962.2
2023-08-14T14:08:46.026Z,962.17
2023-08-14T14:13:47.342Z,962.11
2023-08-14T14:18:48.602Z,962
2023-08-14T14:23:50.278Z,961.99
2023-08-14T14:28:52.127Z,961.92
2023-08-14T14:33:57.104Z,961.94
2023-08-14T14:38:56.001Z,961.91
2023-08-14T14:43:57.416Z,961.87
2023-08-14T14:48:58.984Z,961.92
2023-08-14T14:54:00.338Z,961.92
2023-08-14T14:59:01.628Z,961.94
2023-08-14T15:04:03.696Z,961.91
2023-08-14T15:09:05.786Z,961.87
2023-08-14T15:14:07.874Z,961.78
2023-08-14T15:19:09.453Z,961.71
2023-08-14T15:24:11.033Z,961.71
2023-08-14T15:29:12.272Z,961.65
2023-08-14T15:34:13.871Z,961.59
2023-08-14T15:39:15.178Z,961.62
2023-08-14T15:44:17.256Z,961.61
2023-08-14T15:49:19.073Z,961.65
2023-08-14T15:54:20.709Z,961.64
2023-08-14T15:59:22.171Z,961.61
2023-08-14T16:04:24.065Z,961.56
2023-08-14T16:09:25.306Z,961.58
2023-08-14T16:14:26.814Z,961.58
2023-08-14T16:19:28.928Z,961.55
2023-08-14T16:24:31.080Z,961.52
2023-08-14T16:29:32.475Z,961.58
2023-08-14T16:34:34.014Z,961.5
2023-08-14T16:39:35.375Z,961.44
2023-08-14T16:44:37.334Z,961.45
2023-08-14T16:49:39.434Z,961.39
2023-08-14T16:54:41.117Z,961.44
2023-08-14T16:59:42.430Z,961.53
2023-08-14T17:04:43.688Z,961.54
2023-08-14T17:09:45.357Z,961.56
2023-08-14T17:14:47.388Z,961.59
2023-08-14T17:19:49.115Z,961.63
2023-08-14T17:24:50.912Z,961.66
2023-08-14T17:29:52.781Z,961.68
2023-08-14T17:34:54.384Z,961.66
2023-08-14T17:39:56.124Z,961.69
2023-08-14T17:44:57.840Z,961.65
2023-08-14T17:49:59.376Z,961.62
2023-08-14T17:55:01.445Z,961.65
2023-08-14T18:00:02.776Z,961.69
2023-08-14T18:05:04.926Z,961.6
2023-08-14T18:10:06.974Z,961.68
2023-08-14T18:15:09.069Z,961.66
2023-08-14T18:20:11.133Z,961.68
2023-08-14T18:25:13.059Z,961.7
2023-08-14T18:30:14.631Z,961.7
2023-08-14T18:35:16.186Z,961.72
2023-08-14T18:40:18.046Z,961.76
2023-08-14T18:45:20.105Z,961.84
2023-08-14T18:50:22.010Z,961.89
2023-08-14T18:55:23.883Z,961.92
2023-08-14T21:46:25.096Z,962.04
2023-08-14T21:51:26.541Z,962.02
2023-08-14T21:56:28.636Z,962.03
2023-08-14T22:01:30.388Z,962
2023-08-14T22:06:32.090Z,961.97
2023-08-14T22:11:33.651Z,961.89
2023-08-14T22:16:35.495Z,961.89
2023-08-14T22:21:37.155Z,961.97
2023-08-14T22:26:38.496Z,961.96
2023-08-14T22:31:40.313Z,962.02
2023-08-14T22:36:42.081Z,962
2023-08-14T22:41:43.292Z,962
2023-08-14T22:46:45.006Z,962.03
2023-08-14T22:51:46.340Z,962.05
2023-08-14T22:56:47.935Z,962.01
2023-08-14T23:01:49.459Z,962
2023-08-14T23:06:51.645Z,961.99
2023-08-14T23:11:53.156Z,961.95
2023-08-14T23:16:55.315Z,961.99
2023-08-14T23:21:56.871Z,962.08
2023-08-14T23:26:58.307Z,962.07
2023-08-14T23:32:00.341Z,961.99
2023-08-14T23:37:02.497Z,962.05
2023-08-14T23:42:04.014Z,962.08
2023-08-14T23:47:05.961Z,962.08
2023-08-14T23:52:07.627Z,962.07
2023-08-14T23:57:09.568Z,962.09
